Time;durP1;ratioP1;P1;durP2;ratioP2;P2;SDS_P1;SDS_P2;PMS_P1;PMS_P2;Temp;Humidity;BMP_temperature;BMP_pressure;BME280_temperature;BME280_humidity;BME280_pressure;Samples;Min_cycle;Max_cycle;Signal;HPM_P1;HPM_P2
2022/03/07 00:02:00;;;;;;;;;38.25;35.00;;;;;4.15;71.50;99512.66;4909434;29;8891;-78
2022/03/07 00:04:29;;;;;;;;;47.75;42.50;;;;;4.06;71.59;99515.00;4884522;29;8863;-77
2022/03/07 00:06:58;;;;;;;;;51.00;42.75;;;;;4.16;71.33;99517.00;4895649;29;8876;-78
2022/03/07 00:09:27;;;;;;;;;48.25;43.50;;;;;4.10;71.85;99522.88;4917255;29;8907;-78
2022/03/07 00:11:56;;;;;;;;;35.50;34.25;;;;;4.03;72.64;99518.41;4903851;29;8885;-77
2022/03/07 00:14:25;;;;;;;;;45.75;40.00;;;;;4.06;72.53;99522.75;4903421;29;8885;-77
2022/03/07 00:16:55;;;;;;;;;34.75;33.00;;;;;3.98;72.48;99521.69;4938728;29;8842;-78
2022/03/07 00:19:24;;;;;;;;;45.25;40.50;;;;;4.15;71.85;99507.50;4912219;28;8891;-77
2022/03/07 00:21:53;;;;;;;;;47.75;43.00;;;;;4.14;71.81;99516.09;4942950;28;8875;-78
2022/03/07 00:24:21;;;;;;;;;48.50;45.75;;;;;4.06;71.63;99512.44;4942071;28;8871;-77
2022/03/07 00:26:50;;;;;;;;;54.00;45.00;;;;;4.12;71.71;99510.03;4941063;28;8917;-76
2022/03/07 00:29:19;;;;;;;;;49.50;43.75;;;;;4.07;72.24;99521.94;4958739;28;8899;-78
2022/03/07 00:31:48;;;;;;;;;45.50;41.50;;;;;4.03;72.25;99518.41;4941764;28;8835;-79
2022/03/07 00:34:18;;;;;;;;;51.25;46.25;;;;;4.03;72.57;99520.13;4998970;28;9705;-77
2022/03/07 00:36:47;;;;;;;;;43.25;41.00;;;;;3.97;72.55;99518.25;4995296;28;8884;-77
2022/03/07 00:39:16;;;;;;;;;50.25;43.75;;;;;3.99;72.39;99520.84;5029927;28;8861;-77
2022/03/07 00:41:44;;;;;;;;;40.00;37.75;;;;;4.04;72.20;99522.72;5015154;28;8980;-79
2022/03/07 00:44:14;;;;;;;;;56.25;45.25;;;;;4.01;72.44;99522.66;5019377;28;9716;-78
2022/03/07 00:46:42;;;;;;;;;46.50;42.00;;;;;3.98;72.75;99519.97;5018703;28;8884;-79
2022/03/07 00:49:11;;;;;;;;;49.25;42.50;;;;;4.18;72.25;99517.91;5021803;28;8977;-77
2022/03/07 00:51:41;;;;;;;;;50.50;44.00;;;;;4.27;72.10;99514.66;4998338;28;8901;-79
2022/03/07 00:54:13;;;;;;;;;49.50;41.25;;;;;4.35;71.53;99504.50;4980618;28;8953;-77
2022/03/07 00:56:42;;;;;;;;;49.75;43.00;;;;;4.41;71.42;99502.97;4994451;28;8951;-77
2022/03/07 00:59:15;;;;;;;;;45.25;42.00;;;;;4.50;71.27;99499.75;4998374;28;8868;-78
2022/03/07 01:01:44;;;;;;;;;48.75;43.75;;;;;4.53;71.13;99504.94;4994387;28;8861;-77
2022/03/07 01:04:17;;;;;;;;;48.50;43.00;;;;;4.53;70.83;99507.53;4997414;28;8948;-79
2022/03/07 01:06:47;;;;;;;;;39.25;32.75;;;;;4.63;70.76;99506.94;4993464;28;8852;-77
2022/03/07 01:09:19;;;;;;;;;52.75;45.75;;;;;4.64;70.27;99498.31;4994261;28;8881;-79
2022/03/07 01:11:48;;;;;;;;;46.75;39.75;;;;;4.64;70.41;99500.91;4981044;28;9071;-76
2022/03/07 01:14:18;;;;;;;;;46.50;41.50;;;;;4.66;70.00;99496.66;4999773;28;8950;-78
2022/03/07 01:16:47;;;;;;;;;43.00;36.25;;;;;4.60;69.76;99499.09;4985666;28;9456;-76
2022/03/07 01:19:16;;;;;;;;;47.25;37.25;;;;;4.53;70.38;99497.22;4996312;28;9019;-77
2022/03/07 01:21:44;;;;;;;;;46.25;43.25;;;;;4.54;69.87;99498.97;4980399;28;8954;-77
2022/03/07 01:24:15;;;;;;;;;51.00;42.50;;;;;4.54;69.86;99488.63;4999655;28;8853;-76
2022/03/07 01:26:43;;;;;;;;;45.50;41.25;;;;;4.51;69.59;99483.38;4995182;28;8907;-77
2022/03/07 01:29:12;;;;;;;;;49.75;43.50;;;;;4.48;70.27;99484.22;4997004;28;8876;-76
2022/03/07 01:31:41;;;;;;;;;50.25;43.00;;;;;4.53;69.50;99486.00;4997470;28;8849;-77
2022/03/07 01:34:10;;;;;;;;;41.25;37.50;;;;;4.50;69.60;99484.25;4997821;28;8943;-78
2022/03/07 01:36:38;;;;;;;;;44.75;37.50;;;;;4.50;69.48;99486.84;4995692;28;8868;-78
2022/03/07 01:39:08;;;;;;;;;42.00;39.50;;;;;4.52;69.99;99486.84;4995008;28;8876;-77
2022/03/07 01:41:39;;;;;;;;;36.00;33.75;;;;;4.58;70.07;99485.28;4996576;28;8900;-77
2022/03/07 01:44:17;;;;;;;;;36.75;33.75;;;;;4.68;69.85;99479.47;4995632;28;9046;-76
2022/03/07 01:46:46;;;;;;;;;38.25;36.25;;;;;4.71;68.87;99478.69;5007472;28;8873;-76
2022/03/07 01:49:15;;;;;;;;;32.50;31.75;;;;;4.69;69.15;99476.06;5008129;28;9342;-76
2022/03/07 01:51:45;;;;;;;;;38.50;30.75;;;;;4.63;68.75;99481.09;4986423;28;8983;-77
2022/03/07 01:54:17;;;;;;;;;41.00;33.75;;;;;4.64;69.30;99481.97;5018222;28;8865;-77
2022/03/07 01:56:49;;;;;;;;;46.25;37.50;;;;;4.61;69.02;99477.63;4980951;28;8835;-77
2022/03/07 01:59:20;;;;;;;;;39.75;36.00;;;;;4.64;69.07;99480.25;4971718;28;8936;-74
2022/03/07 02:01:49;;;;;;;;;42.00;37.50;;;;;4.65;69.18;99471.66;5006001;28;8851;-78
2022/03/07 02:04:18;;;;;;;;;36.25;35.25;;;;;4.59;69.21;99484.44;5025178;28;8951;-78
2022/03/07 02:06:48;;;;;;;;;36.75;34.75;;;;;4.64;68.55;99484.53;4996892;28;8942;-77
2022/03/07 02:09:18;;;;;;;;;39.75;37.00;;;;;4.60;68.55;99475.84;5014178;28;8854;-76
2022/03/07 02:11:48;;;;;;;;;42.50;39.00;;;;;4.54;68.20;99485.16;5024857;28;9035;-77
2022/03/07 02:14:22;;;;;;;;;33.00;33.00;;;;;4.47;68.51;99481.59;5016929;28;10130;-76
2022/03/07 02:16:55;;;;;;;;;42.50;38.00;;;;;4.40;68.43;99482.28;4991500;28;9083;-77
2022/03/07 02:19:24;;;;;;;;;45.50;37.50;;;;;4.39;69.10;99486.56;4967498;28;9697;-80
2022/03/07 02:22:00;;;;;;;;;33.50;30.50;;;;;4.44;69.49;99481.50;4967586;28;8907;-77
2022/03/07 02:24:42;;;;;;;;;34.00;32.75;;;;;4.48;69.01;99488.50;4965567;28;8844;-77
2022/03/07 02:27:12;;;;;;;;;44.50;34.00;;;;;4.51;68.75;99485.97;4951157;28;8893;-77
2022/03/07 02:29:43;;;;;;;;;38.25;35.25;;;;;4.40;68.50;99480.56;4936646;28;8832;-77
2022/03/07 02:32:20;;;;;;;;;33.75;30.00;;;;;4.39;68.90;99484.00;4989416;28;8862;-77
2022/03/07 02:34:50;;;;;;;;;32.75;31.75;;;;;4.33;68.77;99486.44;4972513;28;8850;-76
2022/03/07 02:37:21;;;;;;;;;32.00;31.75;;;;;4.37;69.28;99484.81;4972840;28;8874;-77
2022/03/07 02:39:53;;;;;;;;;26.75;22.00;;;;;4.45;68.56;99485.84;4972369;28;8858;-76
2022/03/07 02:42:45;;;;;;;;;46.00;39.50;;;;;4.41;68.76;99490.06;4937167;28;8999;-78
2022/03/07 02:45:13;;;;;;;;;37.00;33.75;;;;;4.39;68.46;99490.88;4952785;28;8845;-76
2022/03/07 02:47:45;;;;;;;;;37.50;35.50;;;;;4.42;68.80;99490.91;4985001;28;9003;-77
2022/03/07 02:50:14;;;;;;;;;41.75;36.25;;;;;4.49;68.85;99495.41;4968716;28;8932;-79
2022/03/07 02:52:46;;;;;;;;;36.25;34.50;;;;;4.51;68.44;99496.31;4968161;28;8884;-78
2022/03/07 02:55:15;;;;;;;;;37.25;35.75;;;;;4.55;68.73;99497.25;4959883;28;8866;-78
2022/03/07 02:57:46;;;;;;;;;36.50;32.50;;;;;4.62;68.67;99494.84;4987792;28;9062;-78
2022/03/07 03:00:15;;;;;;;;;27.00;24.00;;;;;4.57;68.53;99504.19;4993242;28;8846;-79
2022/03/07 03:02:44;;;;;;;;;41.25;34.50;;;;;4.62;67.91;99494.84;4993239;28;8854;-77
2022/03/07 03:05:13;;;;;;;;;31.25;29.75;;;;;4.61;68.63;99495.69;4993166;28;8850;-77
2022/03/07 03:07:41;;;;;;;;;34.75;34.75;;;;;4.61;68.11;99498.28;4975649;28;8854;-79
2022/03/07 03:10:12;;;;;;;;;37.25;31.25;;;;;4.67;68.30;99494.97;5008703;28;8854;-78
2022/03/07 03:12:40;;;;;;;;;33.25;30.25;;;;;4.60;68.17;99491.34;4992572;28;8862;-78
2022/03/07 03:15:10;;;;;;;;;32.50;31.25;;;;;4.61;68.42;99490.53;4992992;28;8943;-80
2022/03/07 03:17:40;;;;;;;;;30.25;30.00;;;;;4.61;68.07;99490.53;5008572;28;8854;-77
2022/03/07 03:20:11;;;;;;;;;31.00;29.00;;;;;4.65;68.64;99486.28;4992223;28;8866;-79
2022/03/07 03:22:41;;;;;;;;;35.75;35.25;;;;;4.68;68.13;99494.97;5008950;28;8960;-78
2022/03/07 03:25:15;;;;;;;;;35.00;30.40;;;;;4.67;68.49;99488.06;5010286;28;8866;-81
2022/03/07 03:27:44;;;;;;;;;37.00;33.50;;;;;4.73;68.39;99491.63;4992753;28;8834;-78
2022/03/07 03:30:14;;;;;;;;;39.50;34.00;;;;;4.73;67.90;99491.63;4992559;28;8862;-77
2022/03/07 03:32:43;;;;;;;;;33.50;31.25;;;;;4.76;67.79;99496.84;5009519;28;9994;-78
2022/03/07 03:35:12;;;;;;;;;39.25;36.00;;;;;4.77;67.79;99490.88;5008120;28;8880;-77
2022/03/07 03:37:40;;;;;;;;;31.00;29.00;;;;;4.78;67.72;99495.16;5008219;28;8873;-79
2022/03/07 03:40:13;;;;;;;;;34.50;32.00;;;;;4.80;67.78;99496.06;5024168;28;8862;-76
2022/03/07 03:42:42;;;;;;;;;31.25;27.00;;;;;4.82;67.64;99494.41;5007796;28;8944;-78
2022/03/07 03:45:11;;;;;;;;;34.25;31.75;;;;;4.83;67.37;99497.03;4991752;28;8971;-77
2022/03/07 03:47:43;;;;;;;;;33.25;28.50;;;;;4.83;67.11;99494.44;5007807;28;8951;-78
2022/03/07 03:50:14;;;;;;;;;36.75;34.50;;;;;4.83;67.28;99493.56;4991870;28;8869;-77
2022/03/07 03:52:43;;;;;;;;;34.50;32.75;;;;;4.84;67.05;99498.78;4991301;28;8886;-78
2022/03/07 03:55:16;;;;;;;;;37.75;33.00;;;;;4.85;67.47;99500.50;4991719;28;8874;-77
2022/03/07 03:57:45;;;;;;;;;36.50;30.00;;;;;4.87;67.74;99504.00;5007749;28;8867;-78
2022/03/07 04:00:16;;;;;;;;;27.25;23.75;;;;;4.86;67.73;99499.69;5007916;28;8865;-78
2022/03/07 04:02:46;;;;;;;;;33.50;32.00;;;;;4.87;67.49;99505.72;5008131;28;8977;-77
2022/03/07 04:05:16;;;;;;;;;38.00;32.75;;;;;4.86;68.11;99504.84;5008242;28;8893;-76
2022/03/07 04:07:46;;;;;;;;;44.75;39.00;;;;;4.88;67.87;99504.88;4966989;28;8905;-77
2022/03/07 04:10:16;;;;;;;;;36.75;35.75;;;;;4.86;67.20;99507.44;4967692;28;8871;-77
2022/03/07 04:12:45;;;;;;;;;35.00;31.75;;;;;4.89;67.58;99504.88;4951012;28;8895;-78
2022/03/07 04:15:14;;;;;;;;;33.75;32.25;;;;;4.86;67.25;99504.84;4935410;28;8885;-77
2022/03/07 04:17:44;;;;;;;;;32.25;29.50;;;;;4.87;66.96;99497.97;4935540;28;8875;-77
2022/03/07 04:20:14;;;;;;;;;34.75;33.00;;;;;4.87;67.24;99504.00;4935524;28;8867;-77
2022/03/07 04:22:42;;;;;;;;;34.50;29.50;;;;;4.86;67.13;99503.97;4967357;28;8961;-76
2022/03/07 04:25:12;;;;;;;;;30.50;27.50;;;;;4.84;67.11;99500.50;4935521;28;8945;-77
2022/03/07 04:27:41;;;;;;;;;34.75;31.25;;;;;4.84;66.66;99501.34;4935547;28;8859;-78
2022/03/07 04:30:11;;;;;;;;;30.00;28.75;;;;;4.84;67.09;99510.81;4928524;29;8991;-77
2022/03/07 04:32:40;;;;;;;;;28.75;26.75;;;;;4.84;67.43;99503.09;4881489;29;8963;-78
2022/03/07 04:35:11;;;;;;;;;37.75;29.00;;;;;4.81;67.28;99503.00;4916667;28;9635;-79
2022/03/07 04:37:40;;;;;;;;;40.25;32.75;;;;;4.83;67.30;99509.06;4932018;28;9007;-77
2022/03/07 04:40:12;;;;;;;;;37.25;33.00;;;;;4.85;67.16;99509.97;5005389;28;8874;-78
2022/03/07 04:42:43;;;;;;;;;37.00;31.50;;;;;4.85;67.22;99515.13;4989865;28;9011;-78
2022/03/07 04:45:13;;;;;;;;;33.50;29.75;;;;;4.87;67.34;99510.88;4990496;28;8846;-77
2022/03/07 04:47:42;;;;;;;;;38.75;33.75;;;;;4.83;67.56;99502.19;4989884;28;8842;-77
2022/03/07 04:50:12;;;;;;;;;38.75;34.75;;;;;4.84;66.77;99497.91;5007114;28;9709;-79
2022/03/07 04:52:42;;;;;;;;;28.50;23.75;;;;;4.84;67.17;99497.91;4973991;28;8862;-78
2022/03/07 04:55:12;;;;;;;;;36.75;31.25;;;;;4.85;67.15;99497.06;4941990;28;8854;-79
2022/03/07 04:57:44;;;;;;;;;43.00;40.25;;;;;4.86;66.78;99494.50;4965512;28;8922;-77
2022/03/07 05:00:14;;;;;;;;;40.50;40.25;;;;;4.85;66.91;99495.34;4953718;28;8861;-77
2022/03/07 05:02:42;;;;;;;;;40.25;37.25;;;;;4.86;67.11;99503.97;4989934;28;8866;-78
2022/03/07 05:05:12;;;;;;;;;41.50;37.75;;;;;4.87;66.83;99503.13;4976819;28;8842;-79
2022/03/07 05:07:41;;;;;;;;;38.75;35.25;;;;;4.90;66.54;99505.78;4988106;28;8958;-81
2022/03/07 05:10:10;;;;;;;;;29.00;26.75;;;;;4.89;66.58;99499.72;4976001;28;9650;-79
2022/03/07 05:12:38;;;;;;;;;32.50;29.75;;;;;4.92;66.70;99498.06;4974184;28;8890;-77
2022/03/07 05:15:10;;;;;;;;;96.67;75.33;;;;;4.94;66.18;99501.56;4991336;28;9012;-81
2022/03/07 05:17:43;;;;;;;;;65.25;49.00;;;;;4.96;65.95;99505.91;5007194;28;9421;-78
2022/03/07 05:20:12;;;;;;;;;35.75;31.25;;;;;4.97;66.08;99507.66;5008609;28;8906;-78
2022/03/07 05:22:41;;;;;;;;;34.00;29.00;;;;;4.98;65.99;99506.81;5008452;28;8894;-78
2022/03/07 05:25:13;;;;;;;;;39.00;30.00;;;;;5.02;66.43;99508.63;4966065;28;8874;-79
2022/03/07 05:27:42;;;;;;;;;41.50;32.75;;;;;5.04;66.18;99506.94;5010360;28;8871;-79
2022/03/07 05:30:15;;;;;;;;;31.25;29.75;;;;;5.07;66.28;99503.56;4993567;28;8851;-78
2022/03/07 05:32:44;;;;;;;;;32.00;30.00;;;;;5.10;65.63;99505.31;5007361;28;8858;-78
2022/03/07 05:35:14;;;;;;;;;30.50;26.75;;;;;5.08;65.34;99505.28;4991188;28;8881;-77
2022/03/07 05:37:42;;;;;;;;;35.50;31.50;;;;;5.10;65.76;99505.31;5007022;28;8854;-78
2022/03/07 05:40:13;;;;;;;;;72.75;60.00;;;;;5.12;66.13;99517.44;5007434;28;8869;-78
2022/03/07 05:42:43;;;;;;;;;69.25;56.75;;;;;5.14;66.16;99507.13;5007431;28;8894;-77
2022/03/07 05:45:15;;;;;;;;;42.50;40.50;;;;;5.13;65.09;99513.16;5009975;28;8830;-76
2022/03/07 05:47:44;;;;;;;;;44.25;38.25;;;;;4.59;65.86;99518.00;5007003;28;8955;-78
2022/03/07 05:50:13;;;;;;;;;42.25;34.75;;;;;3.76;70.08;99515.97;5007456;28;8859;-77
2022/03/07 05:52:41;;;;;;;;;57.50;45.50;;;;;3.17;72.90;99521.22;4939298;28;8892;-78
2022/03/07 05:55:11;;;;;;;;;34.75;30.75;;;;;2.76;75.27;99522.59;4991111;28;8961;-79
2022/03/07 05:57:40;;;;;;;;;50.00;46.50;;;;;2.49;77.07;99524.34;4988483;28;8895;-78
2022/03/07 06:00:10;;;;;;;;;43.50;39.50;;;;;2.11;78.36;99529.16;4967036;28;9016;-78
2022/03/07 06:02:40;;;;;;;;;46.50;41.25;;;;;1.90;80.13;99531.00;4951493;28;9766;-78
2022/03/07 06:05:11;;;;;;;;;49.75;44.50;;;;;1.73;81.29;99535.56;4935361;28;8950;-78
2022/03/07 06:07:39;;;;;;;;;45.75;39.50;;;;;1.78;81.79;99531.47;4970118;28;8869;-78
2022/03/07 06:10:09;;;;;;;;;48.50;43.50;;;;;1.85;82.08;99530.88;4940123;28;8962;-77
2022/03/07 06:12:37;;;;;;;;;60.25;50.25;;;;;1.90;81.94;99536.16;4950918;28;8951;-78
2022/03/07 06:15:08;;;;;;;;;55.50;47.50;;;;;2.36;80.46;99535.09;4972007;28;8907;-78
2022/03/07 06:17:36;;;;;;;;;51.00;46.00;;;;;2.74;79.09;99537.97;4951283;28;8984;-77
2022/03/07 06:20:08;;;;;;;;;43.75;38.75;;;;;3.10;77.83;99527.03;4935018;28;8869;-78
2022/03/07 06:22:37;;;;;;;;;36.75;34.50;;;;;3.36;75.64;99532.06;4905145;28;8873;-77
2022/03/07 06:25:06;;;;;;;;;61.50;45.00;;;;;3.59;74.91;99530.13;4951158;28;8849;-78
2022/03/07 06:27:35;;;;;;;;;49.50;45.75;;;;;3.85;73.83;99535.97;4953513;28;8892;-77
2022/03/07 06:30:04;;;;;;;;;42.50;40.75;;;;;4.02;73.34;99529.53;4956435;28;8896;-78
2022/03/07 06:32:33;;;;;;;;;40.75;38.75;;;;;4.17;72.78;99530.78;4990440;28;8888;-79
2022/03/07 06:35:02;;;;;;;;;44.50;39.50;;;;;4.29;72.22;99531.06;4992443;28;8981;-77
2022/03/07 06:37:32;;;;;;;;;49.75;39.75;;;;;4.44;71.16;99527.97;4994120;28;8997;-79
2022/03/07 06:40:01;;;;;;;;;61.50;46.25;;;;;4.54;70.24;99535.13;4995378;28;8870;-78
2022/03/07 06:42:29;;;;;;;;;51.75;45.75;;;;;4.67;70.22;99531.97;4995894;28;8878;-78
2022/03/07 06:44:58;;;;;;;;;55.50;45.00;;;;;4.80;69.90;99542.56;4992413;28;8862;-78
2022/03/07 06:47:28;;;;;;;;;58.25;48.50;;;;;4.92;70.01;99534.25;5015555;28;8995;-80
2022/03/07 06:49:58;;;;;;;;;55.00;45.00;;;;;4.98;69.12;99540.41;4991337;28;8936;-79
2022/03/07 06:52:26;;;;;;;;;43.00;36.50;;;;;4.84;68.22;99540.13;5006824;28;8850;-79
2022/03/07 06:54:57;;;;;;;;;59.50;46.75;;;;;4.25;69.27;99537.88;4973366;28;8878;-78
2022/03/07 06:57:25;;;;;;;;;57.25;47.00;;;;;4.25;69.62;99543.03;4993660;28;8865;-79
2022/03/07 06:59:54;;;;;;;;;54.00;46.25;;;;;4.38;69.73;99540.75;4971997;28;9575;-82
2022/03/07 07:02:23;;;;;;;;;37.50;34.25;;;;;4.03;70.06;99539.03;4973291;28;8950;-82
2022/03/07 07:04:53;;;;;;;;;49.50;43.25;;;;;3.62;70.86;99545.69;4935577;28;8872;-80
2022/03/07 07:07:22;;;;;;;;;41.00;35.25;;;;;3.38;72.03;99540.72;4980218;28;8841;-79
2022/03/07 07:09:50;;;;;;;;;41.75;34.75;;;;;3.46;71.68;99547.84;4955812;28;9043;-80
2022/03/07 07:12:20;;;;;;;;;46.25;43.25;;;;;3.68;71.00;99543.25;4924567;28;8849;-78
2022/03/07 07:14:50;;;;;;;;;47.50;38.75;;;;;3.84;71.11;99537.69;4966823;28;8929;-74
2022/03/07 07:17:19;;;;;;;;;39.25;32.50;;;;;4.08;70.68;99552.03;4988557;28;9045;-74
2022/03/07 07:19:47;;;;;;;;;46.75;43.75;;;;;4.28;70.63;99552.56;4968835;28;8887;-76
2022/03/07 07:22:16;;;;;;;;;81.00;63.75;;;;;4.27;70.77;99546.53;4933122;28;8855;-75
2022/03/07 07:24:46;;;;;;;;;84.33;66.33;;;;;4.36;70.66;99545.00;4947719;28;8856;-76
2022/03/07 07:27:15;;;;;;;;;72.25;59.75;;;;;4.43;70.25;99550.34;4931975;28;9616;-76
2022/03/07 07:29:45;;;;;;;;;68.50;55.50;;;;;4.26;71.11;99554.22;4898936;28;8866;-73
2022/03/07 07:32:13;;;;;;;;;67.75;55.50;;;;;4.32;70.94;99546.63;4968457;28;8858;-71
2022/03/07 07:34:42;;;;;;;;;73.25;56.00;;;;;4.48;70.72;99558.22;4986372;28;8874;-74
2022/03/07 07:37:11;;;;;;;;;49.00;45.50;;;;;4.51;69.90;99560.00;4966902;28;8907;-73
2022/03/07 07:39:45;;;;;;;;;45.50;40.50;;;;;4.54;69.82;99553.19;4952030;28;8992;-73
2022/03/07 07:42:14;;;;;;;;;51.75;43.00;;;;;4.74;69.95;99555.34;4966621;28;8878;-74
2022/03/07 07:44:42;;;;;;;;;63.75;52.75;;;;;4.55;69.51;99554.91;4970809;28;8916;-74
2022/03/07 07:47:13;;;;;;;;;67.50;53.00;;;;;4.75;70.04;99559.69;4970336;28;8900;-73
2022/03/07 07:49:41;;;;;;;;;64.00;54.25;;;;;4.94;69.54;99558.41;4946367;28;8855;-74
2022/03/07 07:52:10;;;;;;;;;62.75;50.00;;;;;5.08;69.30;99544.06;4951099;28;8871;-74
2022/03/07 07:54:39;;;;;;;;;65.50;53.25;;;;;5.24;69.23;99545.28;4967492;28;8873;-73
2022/03/07 07:57:10;;;;;;;;;59.25;49.25;;;;;4.58;67.96;99547.25;4950448;28;8859;-73
2022/03/07 07:59:39;;;;;;;;;60.00;47.25;;;;;4.56;69.18;99548.94;4980436;28;8849;-72
2022/03/07 08:02:30;;;;;;;;;57.50;49.25;;;;;4.78;69.91;99550.31;4969728;28;8853;-73
2022/03/07 08:04:59;;;;;;;;;58.75;48.50;;;;;4.97;69.24;99554.19;4970090;28;8876;-74
2022/03/07 08:07:34;;;;;;;;;63.75;49.75;;;;;5.17;69.20;99548.56;4986163;28;8970;-73
2022/03/07 08:10:03;;;;;;;;;62.50;49.25;;;;;5.33;69.12;99547.16;4967600;28;8882;-73
2022/03/07 08:12:32;;;;;;;;;63.25;51.25;;;;;5.39;68.08;99548.16;4948123;28;8873;-72
2022/03/07 08:15:01;;;;;;;;;70.25;56.25;;;;;5.52;67.94;99553.56;4951071;28;8930;-71
2022/03/07 08:17:31;;;;;;;;;66.75;54.25;;;;;5.63;67.94;99552.06;4982761;28;8862;-75
2022/03/07 08:19:59;;;;;;;;;70.00;53.75;;;;;5.74;67.10;99547.97;4921358;28;9025;-72
2022/03/07 08:22:28;;;;;;;;;67.00;52.75;;;;;5.83;66.79;99553.31;4966435;28;8876;-72
2022/03/07 08:24:57;;;;;;;;;62.50;51.75;;;;;5.92;66.83;99557.81;5013198;28;9084;-73
2022/03/07 08:27:25;;;;;;;;;63.75;53.75;;;;;5.98;65.99;99555.34;5024455;28;8958;-73
2022/03/07 08:29:54;;;;;;;;;68.25;55.75;;;;;6.00;65.74;99550.22;5006541;28;8853;-75
2022/03/07 08:32:23;;;;;;;;;70.25;57.00;;;;;6.03;65.42;99552.84;5039147;28;8870;-73
2022/03/07 08:34:53;;;;;;;;;68.25;55.25;;;;;6.05;65.07;99546.00;5011538;28;8901;-73
2022/03/07 08:37:22;;;;;;;;;66.25;55.25;;;;;5.86;64.07;99548.22;5027752;28;8835;-75
2022/03/07 08:39:50;;;;;;;;;66.00;53.75;;;;;5.81;64.15;99556.72;5001714;28;9000;-73
2022/03/07 08:42:19;;;;;;;;;67.25;55.25;;;;;5.62;65.20;99561.53;4993529;28;8899;-73
2022/03/07 08:44:49;;;;;;;;;68.00;54.75;;;;;5.72;65.65;99556.56;4968076;28;8880;-74
2022/03/07 08:47:18;;;;;;;;;63.00;53.50;;;;;5.82;65.70;99564.53;4907203;28;8853;-74
2022/03/07 08:49:46;;;;;;;;;64.75;55.50;;;;;5.90;65.18;99563.78;4968343;28;9033;-75
2022/03/07 08:52:17;;;;;;;;;70.00;57.25;;;;;5.47;65.64;99562.13;4954978;28;8861;-73
2022/03/07 08:54:47;;;;;;;;;73.00;57.25;;;;;5.04;66.67;99568.09;4968157;28;9069;-74
2022/03/07 08:57:16;;;;;;;;;60.50;49.00;;;;;4.27;69.42;99568.88;4971367;28;8867;-72
2022/03/07 08:59:44;;;;;;;;;60.50;48.75;;;;;4.20;70.79;99564.41;4989203;28;8854;-73
2022/03/07 09:02:13;;;;;;;;;63.00;49.25;;;;;4.32;69.29;99561.25;4972124;28;8983;-72
2022/03/07 09:04:44;;;;;;;;;48.75;43.75;;;;;4.42;69.60;99565.78;4979597;28;8957;-74
2022/03/07 09:07:13;;;;;;;;;56.00;49.50;;;;;4.25;69.67;99573.13;4973960;28;8971;-74
2022/03/07 09:09:43;;;;;;;;;44.25;39.75;;;;;3.66;72.00;99573.28;4981414;28;8908;-72
2022/03/07 09:12:11;;;;;;;;;45.00;43.75;;;;;3.89;71.72;99577.38;4969708;28;8921;-76
2022/03/07 09:14:40;;;;;;;;;44.75;42.25;;;;;4.03;70.50;99574.28;4996404;28;8862;-74
2022/03/07 09:17:09;;;;;;;;;45.25;38.75;;;;;4.26;70.90;99577.47;4960517;28;8864;-74
2022/03/07 09:19:37;;;;;;;;;53.25;46.75;;;;;4.49;69.50;99565.97;4973602;28;8878;-74
2022/03/07 09:22:06;;;;;;;;;62.25;48.50;;;;;4.24;69.63;99574.84;4972075;28;9108;-76
2022/03/07 09:24:35;;;;;;;;;49.00;45.75;;;;;4.13;70.50;99576.25;4991840;28;8854;-73
2022/03/07 09:27:05;;;;;;;;;45.00;41.50;;;;;4.51;69.66;99578.06;4975154;28;8862;-75
2022/03/07 09:29:34;;;;;;;;;52.50;44.75;;;;;4.73;69.49;99580.31;4990709;28;8858;-74
2022/03/07 09:32:04;;;;;;;;;53.00;46.25;;;;;4.87;68.80;99581.50;4955678;28;8861;-74
2022/03/07 09:34:34;;;;;;;;;47.00;40.75;;;;;5.10;68.76;99575.09;5002200;28;8870;-73
2022/03/07 09:37:04;;;;;;;;;66.50;51.75;;;;;4.98;67.20;99575.72;5007721;28;9025;-72
2022/03/07 09:39:33;;;;;;;;;56.50;47.00;;;;;4.62;69.41;99579.19;4971539;28;8902;-74
2022/03/07 09:42:03;;;;;;;;;51.25;45.25;;;;;4.32;70.29;99576.75;4999860;28;8885;-76
2022/03/07 09:44:33;;;;;;;;;46.25;42.50;;;;;4.61;70.23;99570.59;4988281;28;8865;-76
2022/03/07 09:47:05;;;;;;;;;48.00;43.25;;;;;4.92;70.14;99575.59;4986932;28;8876;-74
2022/03/07 09:49:34;;;;;;;;;51.25;44.25;;;;;5.17;69.70;99569.25;4986123;28;8876;-74
2022/03/07 09:52:04;;;;;;;;;43.25;39.25;;;;;3.86;71.44;99586.75;4939810;28;8936;-75
2022/03/07 09:54:33;;;;;;;;;54.00;43.50;;;;;3.10;73.43;99587.19;4971975;28;8857;-75
2022/03/07 09:57:02;;;;;;;;;45.25;41.50;;;;;2.72;76.45;99589.47;4970375;28;8849;-74
2022/03/07 09:59:34;;;;;;;;;40.50;38.50;;;;;2.69;77.12;99589.34;4936705;28;8893;-74
2022/03/07 10:02:07;;;;;;;;;63.75;50.50;;;;;2.71;77.24;99590.28;4917325;28;8863;-75
2022/03/07 10:04:42;;;;;;;;;62.50;48.25;;;;;2.75;78.59;99583.53;4932926;28;8978;-74
2022/03/07 10:07:10;;;;;;;;;41.50;32.50;;;;;3.21;77.08;99584.03;4948689;28;8864;-76
2022/03/07 10:09:39;;;;;;;;;64.50;49.50;;;;;3.37;76.15;99586.25;4948810;28;8864;-76
2022/03/07 10:12:09;;;;;;;;;57.00;48.00;;;;;2.88;76.32;99595.94;4932115;28;9018;-73
2022/03/07 10:14:44;;;;;;;;;66.50;53.25;;;;;2.88;78.03;99595.94;4933172;28;8982;-75
2022/03/07 10:17:22;;;;;;;;;47.25;43.75;;;;;2.65;78.91;99594.38;4934557;28;9080;-75
2022/03/07 10:19:53;;;;;;;;;56.50;47.50;;;;;2.68;78.37;99587.59;4987047;28;8850;-75
2022/03/07 10:22:24;;;;;;;;;63.00;47.75;;;;;2.87;78.59;99596.78;4987099;28;8920;-74
2022/03/07 10:25:00;;;;;;;;;66.00;51.75;;;;;2.65;79.46;99590.09;4987383;28;8854;-73
2022/03/07 10:27:33;;;;;;;;;59.00;50.25;;;;;3.03;77.90;99595.53;4987267;28;8904;-75
2022/03/07 10:30:03;;;;;;;;;57.75;50.25;;;;;3.30;76.84;99592.91;4987124;28;8838;-75
2022/03/07 10:32:33;;;;;;;;;63.25;52.25;;;;;3.02;77.25;99592.91;4970672;28;8923;-76
2022/03/07 10:35:02;;;;;;;;;52.75;46.25;;;;;2.70;78.82;99587.63;4961329;28;8879;-74
2022/03/07 10:37:35;;;;;;;;;47.25;44.25;;;;;2.97;78.41;99586.75;4948744;28;8910;-74
2022/03/07 10:40:08;;;;;;;;;54.75;45.75;;;;;3.49;77.34;99586.56;4979632;28;8870;-76
2022/03/07 10:42:45;;;;;;;;;52.50;45.00;;;;;3.60;76.46;99586.88;4973998;28;8944;-74
2022/03/07 10:45:14;;;;;;;;;45.75;43.50;;;;;3.76;75.18;99582.16;4973603;28;8952;-73
2022/03/07 10:47:50;;;;;;;;;55.25;47.25;;;;;3.63;74.61;99587.00;5005974;28;8877;-74
2022/03/07 10:50:22;;;;;;;;;53.75;46.50;;;;;3.28;76.35;99581.69;5006601;28;8854;-74
2022/03/07 10:52:52;;;;;;;;;54.00;45.75;;;;;2.94;78.18;99584.97;5006177;28;8937;-73
2022/03/07 10:55:26;;;;;;;;;64.75;51.75;;;;;2.65;80.11;99579.78;5006789;28;8839;-74
2022/03/07 10:58:05;;;;;;;;;36.25;29.00;;;;;2.68;79.61;99579.00;5006296;28;8869;-75
2022/03/07 11:00:47;;;;;;;;;64.75;52.25;;;;;2.97;80.29;99572.19;4970622;28;8850;-75
2022/03/07 11:03:19;;;;;;;;;62.25;50.75;;;;;3.63;78.98;99566.34;4979187;28;8893;-74
2022/03/07 11:05:48;;;;;;;;;67.00;51.75;;;;;3.95;76.00;99565.47;4997421;28;8842;-74
2022/03/07 11:08:20;;;;;;;;;62.25;49.75;;;;;4.32;75.61;99556.97;4988035;28;8868;-75
2022/03/07 11:10:51;;;;;;;;;57.25;47.25;;;;;4.51;73.20;99554.81;4989759;28;8858;-76
2022/03/07 11:13:25;;;;;;;;;62.00;51.00;;;;;4.82;72.82;99548.66;5005649;28;8917;-75
2022/03/07 11:15:56;;;;;;;;;66.00;53.75;;;;;3.97;73.85;99550.88;4988779;28;8876;-74
2022/03/07 11:18:30;;;;;;;;;63.00;50.00;;;;;3.54;75.33;99553.22;5001932;28;8998;-74
2022/03/07 11:21:00;;;;;;;;;63.50;51.00;;;;;3.69;75.96;99547.59;4991215;28;8932;-73
2022/03/07 11:23:29;;;;;;;;;66.75;55.00;;;;;3.43;77.70;99544.31;5005674;28;8869;-73
2022/03/07 11:26:00;;;;;;;;;65.50;52.75;;;;;3.79;76.61;99546.13;5008070;28;8884;-75
2022/03/07 11:28:31;;;;;;;;;59.00;50.50;;;;;4.28;76.16;99537.94;5007807;28;8850;-74
2022/03/07 11:31:01;;;;;;;;;64.25;50.50;;;;;4.67;74.10;99533.69;4990931;28;9573;-75
2022/03/07 11:33:40;;;;;;;;;64.00;53.00;;;;;5.01;72.14;99531.84;4991581;28;8869;-74
2022/03/07 11:36:17;;;;;;;;;63.75;51.00;;;;;5.25;71.14;99532.38;4991092;28;8850;-73
2022/03/07 11:38:54;;;;;;;;;59.50;50.25;;;;;5.53;70.22;99527.75;4989336;28;8854;-75
2022/03/07 11:41:25;;;;;;;;;71.25;54.75;;;;;5.19;69.79;99521.03;5006979;28;8884;-75
2022/03/07 11:43:56;;;;;;;;;55.00;45.75;;;;;5.03;70.62;99525.00;4990623;28;8846;-74
2022/03/07 11:46:26;;;;;;;;;65.25;48.75;;;;;5.54;71.12;99515.66;4969832;28;9025;-76
2022/03/07 11:48:57;;;;;;;;;55.00;46.50;;;;;5.88;68.34;99519.78;4970160;28;8892;-76